Time,TemperatureF,DewpointF,PressureIn,WindDirection,WindDirectionDegrees,WindSpeedMPH,WindSpeedGustMPH,Humidity,HourlyPrecipIn,Conditions,Clouds,dailyrainin,SoftwareType,DateUTC
2013-11-11 00:03:00,49.0,-99.9,-100.00,WNW,284,14.0,24.0,-999,-99.99,,,-99.99,,2013-11-11 05:03:00,
2013-11-11 00:13:00,49.0,-99.9,-100.00,WNW,284,14.0,24.0,-999,-99.99,,,-99.99,,2013-11-11 05:13:00,
2013-11-11 00:44:00,49.0,-99.9,-100.00,WNW,289,12.0,24.0,-999,-99.99,,,-99.99,,2013-11-11 05:44:00,
2013-11-11 00:54:00,49.0,-99.9,-100.00,WNW,289,12.0,24.0,-999,-99.99,,,-99.99,,2013-11-11 05:54:00,
2013-11-11 01:03:00,49.0,-99.9,-100.00,WNW,289,12.0,24.0,-999,-99.99,,,-99.99,,2013-11-11 06:03:00,
2013-11-11 01:13:00,49.0,-99.9,-100.00,WNW,289,12.0,24.0,-999,-99.99,,,-99.99,,2013-11-11 06:13:00,
2013-11-11 01:42:00,48.0,-99.9,-100.00,NW,304,12.0,17.0,-999,0.00,,,-99.99,,2013-11-11 06:42:00,
2013-11-11 01:52:00,48.0,-99.9,-100.00,NW,304,12.0,17.0,-999,0.00,,,-99.99,,2013-11-11 06:52:00,
2013-11-11 02:02:00,48.0,-99.9,-100.00,NW,304,12.0,17.0,-999,0.00,,,-99.99,,2013-11-11 07:02:00,
2013-11-11 02:12:00,48.0,-99.9,-100.00,NW,304,12.0,17.0,-999,0.00,,,-99.99,,2013-11-11 07:12:00,
2013-11-11 02:43:00,47.0,-99.9,-100.00,WNW,298,13.0,18.0,-999,-99.99,,,-99.99,,2013-11-11 07:43:00,
2013-11-11 02:52:00,47.0,-99.9,-100.00,WNW,298,13.0,18.0,-999,-99.99,,,-99.99,,2013-11-11 07:52:00,
2013-11-11 03:02:00,47.0,-99.9,-100.00,WNW,298,13.0,18.0,-999,-99.99,,,-99.99,,2013-11-11 08:02:00,
2013-11-11 03:12:00,47.0,-99.9,-100.00,WNW,298,13.0,18.0,-999,-99.99,,,-99.99,,2013-11-11 08:12:00,
2013-11-11 03:42:00,47.0,-99.9,-100.00,NW,321,11.0,14.0,-999,-99.99,,,-99.99,,2013-11-11 08:42:00,
2013-11-11 03:52:00,47.0,-99.9,-100.00,NW,321,11.0,14.0,-999,-99.99,,,-99.99,,2013-11-11 08:52:00,
2013-11-11 04:02:00,47.0,-99.9,-100.00,NW,321,11.0,14.0,-999,-99.99,,,-99.99,,2013-11-11 09:02:00,
2013-11-11 04:11:00,47.0,-99.9,-100.00,NW,321,11.0,14.0,-999,-99.99,,,-99.99,,2013-11-11 09:11:00,
2013-11-11 04:43:00,45.0,-99.9,-100.00,NW,320,13.0,21.0,-999,-99.99,,,-99.99,,2013-11-11 09:43:00,
2013-11-11 04:54:00,45.0,-99.9,-100.00,NW,320,13.0,21.0,-999,-99.99,,,-99.99,,2013-11-11 09:54:00,
2013-11-11 05:03:00,45.0,-99.9,-100.00,NW,320,13.0,21.0,-999,-99.99,,,-99.99,,2013-11-11 10:03:00,
2013-11-11 05:13:00,45.0,-99.9,-100.00,NW,320,13.0,21.0,-999,-99.99,,,-99.99,,2013-11-11 10:13:00,
2013-11-11 05:42:00,44.0,-99.9,-100.00,NW,320,8.0,14.0,-999,-99.99,,,-99.99,,2013-11-11 10:42:00,
2013-11-11 05:53:00,44.0,-99.9,-100.00,NW,320,8.0,14.0,-999,-99.99,,,-99.99,,2013-11-11 10:53:00,
2013-11-11 06:03:00,44.0,-99.9,-100.00,NW,320,8.0,14.0,-999,-99.99,,,-99.99,,2013-11-11 11:03:00,
2013-11-11 06:12:00,44.0,-99.9,-100.00,NW,320,8.0,14.0,-999,-99.99,,,-99.99,,2013-11-11 11:12:00,
2013-11-11 06:42:00,43.0,-99.9,-100.00,NW,322,5.0,11.0,-999,-99.99,,,-99.99,,2013-11-11 11:42:00,
2013-11-11 06:52:00,43.0,-99.9,-100.00,NW,322,5.0,11.0,-999,-99.99,,,-99.99,,2013-11-11 11:52:00,
2013-11-11 07:02:00,43.0,-99.9,-100.00,NW,322,5.0,11.0,-999,-99.99,,,-99.99,,2013-11-11 12:02:00,
2013-11-11 07:12:00,43.0,-99.9,-100.00,NW,322,5.0,11.0,-999,-99.99,,,-99.99,,2013-11-11 12:12:00,
2013-11-11 07:42:00,44.0,-99.9,-100.00,NW,316,5.0,12.0,-999,-99.99,,,-99.99,,2013-11-11 12:42:00,
2013-11-11 07:52:00,44.0,-99.9,-100.00,NW,316,5.0,12.0,-999,-99.99,,,-99.99,,2013-11-11 12:52:00,
2013-11-11 08:01:00,44.0,-99.9,-100.00,NW,316,5.0,12.0,-999,-99.99,,,-99.99,,2013-11-11 13:01:00,
2013-11-11 08:11:00,44.0,-99.9,-100.00,NW,316,5.0,12.0,-999,-99.99,,,-99.99,,2013-11-11 13:11:00,
2013-11-11 08:52:00,46.0,-99.9,-100.00,NW,319,9.0,15.0,-999,0.00,,,-99.99,,2013-11-11 13:52:00,
2013-11-11 09:02:00,46.0,-99.9,-100.00,NW,319,9.0,15.0,-999,0.00,,,-99.99,,2013-11-11 14:02:00,
2013-11-11 09:11:00,46.0,-99.9,-100.00,NW,319,9.0,15.0,-999,0.00,,,-99.99,,2013-11-11 14:11:00,
2013-11-11 09:42:00,48.0,-99.9,-100.00,WNW,288,10.0,17.0,-999,0.00,,,-99.99,,2013-11-11 14:42:00,
2013-11-11 09:52:00,48.0,-99.9,-100.00,WNW,288,10.0,17.0,-999,0.00,,,-99.99,,2013-11-11 14:52:00,
2013-11-11 10:02:00,48.0,-99.9,-100.00,WNW,288,10.0,17.0,-999,0.00,,,-99.99,,2013-11-11 15:02:00,
2013-11-11 10:11:00,48.0,-99.9,-100.00,WNW,288,10.0,17.0,-999,0.00,,,-99.99,,2013-11-11 15:11:00,
2013-11-11 10:44:00,48.0,-99.9,-100.00,WNW,300,9.0,14.0,-999,0.00,,,-99.99,,2013-11-11 15:44:00,
2013-11-11 10:53:00,48.0,-99.9,-100.00,WNW,300,9.0,14.0,-999,0.00,,,-99.99,,2013-11-11 15:53:00,
2013-11-11 11:03:00,48.0,-99.9,-100.00,WNW,300,9.0,14.0,-999,0.00,,,-99.99,,2013-11-11 16:03:00,
2013-11-11 11:13:00,48.0,-99.9,-100.00,WNW,300,9.0,14.0,-999,0.00,,,-99.99,,2013-11-11 16:13:00,
2013-11-11 11:42:00,48.0,-99.9,-100.00,WNW,291,9.0,15.0,-999,-99.99,,,-99.99,,2013-11-11 16:42:00,
2013-11-11 11:53:00,48.0,-99.9,-100.00,WNW,291,9.0,15.0,-999,-99.99,,,-99.99,,2013-11-11 16:53:00,
2013-11-11 12:03:00,48.0,-99.9,-100.00,WNW,291,9.0,15.0,-999,-99.99,,,-99.99,,2013-11-11 17:03:00,
2013-11-11 12:13:00,48.0,-99.9,-100.00,WNW,291,9.0,15.0,-999,-99.99,,,-99.99,,2013-11-11 17:13:00,
2013-11-11 12:43:00,50.0,-99.9,-100.00,NW,313,9.0,13.0,-999,0.00,,,-99.99,,2013-11-11 17:43:00,
2013-11-11 12:52:00,50.0,-99.9,-100.00,NW,313,9.0,13.0,-999,0.00,,,-99.99,,2013-11-11 17:52:00,
2013-11-11 13:02:00,50.0,-99.9,-100.00,NW,313,9.0,13.0,-999,0.00,,,-99.99,,2013-11-11 18:02:00,
2013-11-11 13:13:00,50.0,-99.9,-100.00,NW,313,9.0,13.0,-999,0.00,,,-99.99,,2013-11-11 18:13:00,
2013-11-11 13:42:00,50.0,-99.9,-100.00,WNW,294,10.0,13.0,-999,0.00,,,-99.99,,2013-11-11 18:42:00,
2013-11-11 13:52:00,50.0,-99.9,-100.00,WNW,294,10.0,13.0,-999,0.00,,,-99.99,,2013-11-11 18:52:00,
2013-11-11 14:02:00,50.0,-99.9,-100.00,WNW,294,10.0,13.0,-999,0.00,,,-99.99,,2013-11-11 19:02:00,
2013-11-11 14:12:00,50.0,-99.9,-100.00,WNW,294,10.0,13.0,-999,0.00,,,-99.99,,2013-11-11 19:12:00,
2013-11-11 14:53:00,52.0,-99.9,-100.00,SW,234,8.0,10.0,-999,0.00,,,-99.99,,2013-11-11 19:53:00,
2013-11-11 15:02:00,52.0,-99.9,-100.00,SW,234,8.0,10.0,-999,0.00,,,-99.99,,2013-11-11 20:02:00,
2013-11-11 15:11:00,52.0,-99.9,-100.00,SW,234,8.0,10.0,-999,0.00,,,-99.99,,2013-11-11 20:11:00,
2013-11-11 15:42:00,51.0,-99.9,-100.00,SW,235,9.0,14.0,-999,-99.99,,,-99.99,,2013-11-11 20:42:00,
2013-11-11 15:52:00,51.0,-99.9,-100.00,SW,235,9.0,14.0,-999,-99.99,,,-99.99,,2013-11-11 20:52:00,
2013-11-11 16:02:00,51.0,-99.9,-100.00,SW,235,9.0,14.0,-999,-99.99,,,-99.99,,2013-11-11 21:02:00,
2013-11-11 16:12:00,51.0,-99.9,-100.00,SW,235,9.0,14.0,-999,-99.99,,,-99.99,,2013-11-11 21:12:00,
2013-11-11 16:43:00,48.0,-99.9,-100.00,WSW,238,7.0,11.0,-999,-99.99,,,-99.99,,2013-11-11 21:43:00,
2013-11-11 16:55:00,48.0,-99.9,-100.00,WSW,238,7.0,11.0,-999,-99.99,,,-99.99,,2013-11-11 21:55:00,
2013-11-11 17:04:00,48.0,-99.9,-100.00,WSW,238,7.0,11.0,-999,-99.99,,,-99.99,,2013-11-11 22:04:00,
2013-11-11 17:14:00,48.0,-99.9,-100.00,WSW,238,7.0,11.0,-999,-99.99,,,-99.99,,2013-11-11 22:14:00,
2013-11-11 17:43:00,48.0,-99.9,-100.00,SW,232,6.0,8.0,-999,-99.99,,,-99.99,,2013-11-11 22:43:00,
2013-11-11 17:53:00,48.0,-99.9,-100.00,SW,232,6.0,8.0,-999,-99.99,,,-99.99,,2013-11-11 22:53:00,
2013-11-11 18:03:00,48.0,-99.9,-100.00,SW,232,6.0,8.0,-999,-99.99,,,-99.99,,2013-11-11 23:03:00,
2013-11-11 18:13:00,48.0,-99.9,-100.00,SW,232,6.0,8.0,-999,-99.99,,,-99.99,,2013-11-11 23:13:00,
2013-11-11 18:43:00,51.0,-99.9,-100.00,SW,229,10.0,15.0,-999,-99.99,,,-99.99,,2013-11-11 23:43:00,
2013-11-11 18:53:00,51.0,-99.9,-100.00,SW,229,10.0,15.0,-999,-99.99,,,-99.99,,2013-11-11 23:53:00,
2013-11-11 19:03:00,51.0,-99.9,-100.00,SW,229,10.0,15.0,-999,-99.99,,,-99.99,,2013-11-12 00:03:00,
2013-11-11 19:12:00,51.0,-99.9,-100.00,SW,229,10.0,15.0,-999,-99.99,,,-99.99,,2013-11-12 00:12:00,
2013-11-11 19:42:00,52.0,-99.9,-100.00,SW,228,13.0,19.0,-999,-99.99,,,-99.99,,2013-11-12 00:42:00,
2013-11-11 19:52:00,52.0,-99.9,-100.00,SW,228,13.0,19.0,-999,-99.99,,,-99.99,,2013-11-12 00:52:00,
2013-11-11 20:02:00,52.0,-99.9,-100.00,SW,228,13.0,19.0,-999,-99.99,,,-99.99,,2013-11-12 01:02:00,
2013-11-11 20:11:00,52.0,-99.9,-100.00,SW,228,13.0,19.0,-999,-99.99,,,-99.99,,2013-11-12 01:11:00,
2013-11-11 20:42:00,53.0,-99.9,-100.00,WSW,239,13.0,20.0,-999,-99.99,,,-99.99,,2013-11-12 01:42:00,
2013-11-11 20:52:00,53.0,-99.9,-100.00,WSW,239,13.0,20.0,-999,-99.99,,,-99.99,,2013-11-12 01:52:00,
2013-11-11 21:01:00,53.0,-99.9,-100.00,WSW,239,13.0,20.0,-999,-99.99,,,-99.99,,2013-11-12 02:01:00,
2013-11-11 21:12:00,53.0,-99.9,-100.00,WSW,239,13.0,20.0,-999,-99.99,,,-99.99,,2013-11-12 02:12:00,
2013-11-11 21:52:00,53.0,-99.9,-100.00,WSW,244,14.0,20.0,-999,0.00,,,-99.99,,2013-11-12 02:52:00,
2013-11-11 22:02:00,53.0,-99.9,-100.00,WSW,244,14.0,20.0,-999,0.00,,,-99.99,,2013-11-12 03:02:00,
2013-11-11 22:12:00,53.0,-99.9,-100.00,WSW,244,14.0,20.0,-999,0.00,,,-99.99,,2013-11-12 03:12:00,
2013-11-11 22:45:00,52.0,-99.9,-100.00,SW,236,11.0,20.0,-999,-99.99,,,-99.99,,2013-11-12 03:45:00,
2013-11-11 22:54:00,52.0,-99.9,-100.00,SW,236,11.0,20.0,-999,-99.99,,,-99.99,,2013-11-12 03:54:00,
2013-11-11 23:05:00,52.0,-99.9,-100.00,SW,236,11.0,20.0,-999,-99.99,,,-99.99,,2013-11-12 04:05:00,
2013-11-11 23:14:00,52.0,-99.9,-100.00,SW,236,11.0,20.0,-999,-99.99,,,-99.99,,2013-11-12 04:14:00,
2013-11-11 23:44:00,53.0,-99.9,-100.00,WSW,248,11.0,17.0,-999,-99.99,,,-99.99,,2013-11-12 04:44:00,
2013-11-11 23:53:00,53.0,-99.9,-100.00,WSW,248,11.0,17.0,-999,-99.99,,,-99.99,,2013-11-12 04:53:00,